createdAt,value
2022-11-03T00:01:51.213Z,55.90
2022-11-03T00:04:20.953Z,55.90
2022-11-03T00:06:50.637Z,55.90
2022-11-03T00:09:19.134Z,55.90
2022-11-03T00:11:47.867Z,55.90
2022-11-03T00:14:15.286Z,55.90
2022-11-03T00:16:42.334Z,55.90
2022-11-03T00:19:10.809Z,55.90
2022-11-03T00:21:38.480Z,56.40
2022-11-03T00:24:06.024Z,55.90
2022-11-03T00:26:34.857Z,55.80
2022-11-03T00:29:07.129Z,55.90
2022-11-03T00:31:36.053Z,55.80
2022-11-03T00:34:04.012Z,55.80
2022-11-03T00:36:37.070Z,55.80
2022-11-03T00:39:05.233Z,55.80
2022-11-03T00:41:58.277Z,55.90
2022-11-03T00:44:25.325Z,55.80
2022-11-03T00:46:52.318Z,55.80
2022-11-03T00:49:19.422Z,55.80
2022-11-03T00:51:46.491Z,55.80
2022-11-03T00:54:13.486Z,55.80
2022-11-03T00:56:42.201Z,55.80
2022-11-03T01:02:53.384Z,55.80
2022-11-03T01:05:40.291Z,55.80
2022-11-03T01:08:07.650Z,55.90
2022-11-03T01:10:38.056Z,55.90
2022-11-03T01:13:05.207Z,55.90
2022-11-03T01:15:32.434Z,56.00
2022-11-03T01:17:59.532Z,56.00
2022-11-03T01:20:26.510Z,56.00
2022-11-03T01:22:53.491Z,56.00
2022-11-03T01:25:20.515Z,56.00
2022-11-03T01:27:47.513Z,56.00
2022-11-03T01:30:14.656Z,56.10
2022-11-03T01:32:41.715Z,56.00
2022-11-03T01:35:08.875Z,56.00
2022-11-03T01:37:35.942Z,56.00
2022-11-03T01:40:02.965Z,56.00
2022-11-03T01:42:30.013Z,55.90
2022-11-03T01:44:57.030Z,55.90
2022-11-03T01:47:32.123Z,55.80
2022-11-03T01:50:14.111Z,55.80
2022-11-03T01:52:50.289Z,55.80
2022-11-03T01:55:21.752Z,55.80
2022-11-03T01:57:59.921Z,55.80
2022-11-03T02:00:27.270Z,55.80
2022-11-03T02:02:55.110Z,55.70
2022-11-03T02:05:25.891Z,55.70
2022-11-03T02:08:13.724Z,55.70
2022-11-03T02:10:40.863Z,55.70
2022-11-03T02:13:15.484Z,55.70
2022-11-03T02:15:43.108Z,55.70
2022-11-03T02:18:12.676Z,55.70
2022-11-03T02:20:41.815Z,55.70
2022-11-03T02:23:26.635Z,55.70
2022-11-03T02:25:55.904Z,55.70
2022-11-03T02:28:31.176Z,55.70
2022-11-03T02:31:28.404Z,55.70
2022-11-03T02:34:17.984Z,55.70
2022-11-03T02:37:04.651Z,55.70
2022-11-03T02:39:46.517Z,55.70
2022-11-03T02:42:15.471Z,55.70
2022-11-03T02:44:43.673Z,56.20
2022-11-03T02:47:13.189Z,55.70
2022-11-03T02:49:46.200Z,55.70
2022-11-03T02:52:34.735Z,55.70
2022-11-03T02:55:13.147Z,55.70
2022-11-03T02:57:55.232Z,55.70
2022-11-03T03:00:22.595Z,55.70
2022-11-03T03:03:04.146Z,55.70
2022-11-03T03:05:34.436Z,55.70
2022-11-03T03:08:07.949Z,55.70
2022-11-03T03:10:43.802Z,55.80
2022-11-03T03:13:17.242Z,55.80
2022-11-03T03:15:52.378Z,55.80
2022-11-03T03:18:31.107Z,55.80
2022-11-03T03:21:11.533Z,55.90
2022-11-03T03:23:45.156Z,55.80
2022-11-03T03:26:18.518Z,55.80
2022-11-03T03:28:53.689Z,55.90
2022-11-03T03:31:21.685Z,55.90
2022-11-03T03:33:53.242Z,55.80
2022-11-03T03:36:26.135Z,55.80
2022-11-03T03:38:58.831Z,55.80
2022-11-03T03:41:28.621Z,55.70
2022-11-03T03:44:00.479Z,56.30
2022-11-03T03:46:31.653Z,55.70
2022-11-03T03:48:58.778Z,55.70
2022-11-03T03:51:28.902Z,55.70
2022-11-03T03:53:56.107Z,55.70
2022-11-03T03:56:38.228Z,55.70
2022-11-03T03:59:05.213Z,55.70
2022-11-03T04:01:32.314Z,55.70
2022-11-03T04:03:59.501Z,55.60
2022-11-03T04:06:26.685Z,55.70
2022-11-03T04:08:53.714Z,55.60
2022-11-03T04:11:40.610Z,55.60
2022-11-03T04:14:29.781Z,55.60
2022-11-03T04:17:16.718Z,55.60
2022-11-03T04:20:03.609Z,55.60
2022-11-03T04:22:33.531Z,55.70
2022-11-03T04:25:01.231Z,55.70
2022-11-03T04:27:36.646Z,55.60
2022-11-03T04:30:16.718Z,55.60
2022-11-03T04:32:51.645Z,55.60
2022-11-03T04:35:28.394Z,55.60
2022-11-03T04:38:16.635Z,55.60
2022-11-03T04:40:49.103Z,55.60
2022-11-03T04:43:20.908Z,55.70
2022-11-03T04:45:49.557Z,55.60
2022-11-03T04:48:21.351Z,55.70
2022-11-03T04:50:50.237Z,55.70
2022-11-03T04:53:19.017Z,56.30
2022-11-03T04:55:49.762Z,55.70
2022-11-03T04:58:26.588Z,55.80
2022-11-03T05:00:57.023Z,55.80
2022-11-03T05:03:27.608Z,55.80
2022-11-03T05:05:54.713Z,55.80
2022-11-03T05:08:22.369Z,55.80
2022-11-03T05:10:49.984Z,55.80
2022-11-03T05:13:25.769Z,55.70
2022-11-03T05:15:57.017Z,55.70
2022-11-03T05:18:35.433Z,55.70
2022-11-03T05:21:12.449Z,55.60
2022-11-03T05:23:42.432Z,55.60
2022-11-03T05:26:20.211Z,55.60
2022-11-03T05:29:00.032Z,55.60
2022-11-03T05:31:29.636Z,55.60
2022-11-03T05:34:02.623Z,55.60
2022-11-03T05:36:33.141Z,55.60
2022-11-03T05:39:28.012Z,55.40
2022-11-03T05:41:55.697Z,55.20
2022-11-03T05:44:39.785Z,55.00
2022-11-03T05:47:18.904Z,54.90
2022-11-03T05:49:46.110Z,54.70
2022-11-03T05:52:19.920Z,54.60
2022-11-03T05:54:47.272Z,54.60
2022-11-03T05:57:16.485Z,54.70
2022-11-03T05:59:46.181Z,54.60
2022-11-03T06:02:40.450Z,54.60
2022-11-03T06:05:24.397Z,54.50
2022-11-03T06:07:54.254Z,54.50
2022-11-03T06:10:34.765Z,54.50
2022-11-03T06:13:12.244Z,54.40
2022-11-03T06:15:42.048Z,54.30
2022-11-03T06:18:21.612Z,54.20
2022-11-03T06:29:19.686Z,54.10
2022-11-03T06:31:50.762Z,54.30
2022-11-03T06:34:41.685Z,54.50
2022-11-03T06:37:21.975Z,54.40
2022-11-03T06:39:49.874Z,54.30
2022-11-03T06:42:20.330Z,54.20
2022-11-03T06:44:48.391Z,54.10
2022-11-03T06:47:28.082Z,54.00
2022-11-03T06:53:46.696Z,53.80
2022-11-03T07:07:16.905Z,53.40
2022-11-03T07:13:35.541Z,53.20
2022-11-03T07:21:50.403Z,52.90
2022-11-03T07:24:24.824Z,52.90
2022-11-03T07:27:17.902Z,52.90
2022-11-03T07:29:46.335Z,52.90
2022-11-03T07:32:21.414Z,53.10
2022-11-03T07:34:52.593Z,53.40
2022-11-03T07:37:23.991Z,53.50
2022-11-03T07:47:26.580Z,53.50
2022-11-03T07:49:55.467Z,53.40
2022-11-03T07:52:25.962Z,53.50
2022-11-03T07:55:40.876Z,53.60
2022-11-03T07:58:24.355Z,53.50
2022-11-03T08:00:57.841Z,53.30
2022-11-03T08:04:15.459Z,53.30
2022-11-03T08:06:42.481Z,53.20
2022-11-03T08:09:09.513Z,53.10
2022-11-03T08:15:17.438Z,52.80
2022-11-03T08:17:44.387Z,52.70
2022-11-03T08:24:02.101Z,52.80
2022-11-03T08:26:29.254Z,52.70
2022-11-03T08:28:56.250Z,52.70
2022-11-03T08:31:23.207Z,52.80
2022-11-03T08:33:50.224Z,52.70
2022-11-03T08:36:17.492Z,52.60
2022-11-03T08:38:44.525Z,52.50
2022-11-03T08:41:12.236Z,52.30
2022-11-03T08:43:39.274Z,52.10
2022-11-03T08:46:15.822Z,52.00
2022-11-03T08:48:46.314Z,51.90
2022-11-03T08:51:14.809Z,51.70
2022-11-03T08:53:46.570Z,51.60
2022-11-03T08:56:15.017Z,51.50
2022-11-03T08:58:47.049Z,51.30
2022-11-03T09:04:54.773Z,51.00
2022-11-03T09:14:43.626Z,50.40
2022-11-03T09:17:10.650Z,50.30
2022-11-03T09:19:37.677Z,50.30
2022-11-03T09:22:04.707Z,50.10
2022-11-03T09:24:31.897Z,50.00
2022-11-03T09:27:02.161Z,49.90
2022-11-03T09:29:32.916Z,49.80
2022-11-03T09:32:08.348Z,49.80
2022-11-03T09:34:35.344Z,49.60
2022-11-03T09:37:02.349Z,49.50
2022-11-03T09:43:11.054Z,49.10
2022-11-03T09:57:17.418Z,48.30
2022-11-03T09:59:46.792Z,48.20
2022-11-03T10:12:43.302Z,47.90
2022-11-03T10:15:18.490Z,47.90
2022-11-03T10:21:38.134Z,47.60
2022-11-03T10:24:05.726Z,47.70
2022-11-03T10:26:46.279Z,47.80
2022-11-03T10:32:54.048Z,47.70
2022-11-03T10:43:11.910Z,47.70
2022-11-03T10:45:38.935Z,47.60
2022-11-03T10:48:08.281Z,47.50
2022-11-03T10:59:45.651Z,47.40
2022-11-03T11:02:22.417Z,47.40
2022-11-03T11:04:53.921Z,47.40
2022-11-03T11:07:29.455Z,47.50
2022-11-03T11:09:56.583Z,47.40
2022-11-03T11:12:25.260Z,47.40
2022-11-03T11:14:55.185Z,47.10
2022-11-03T11:17:43.864Z,47.10
2022-11-03T11:20:28.836Z,47.10
2022-11-03T11:22:55.992Z,47.10
2022-11-03T11:26:02.745Z,47.10
2022-11-03T11:28:29.754Z,47.00
2022-11-03T11:30:58.217Z,46.90
2022-11-03T11:33:27.866Z,46.70
2022-11-03T11:36:06.650Z,46.80
2022-11-03T11:38:57.686Z,46.80
2022-11-03T11:42:04.457Z,46.90
2022-11-03T11:44:54.106Z,46.90
2022-11-03T11:51:16.212Z,46.70
2022-11-03T11:53:46.128Z,46.60
2022-11-03T11:56:19.150Z,46.60
2022-11-03T11:58:51.712Z,46.60
2022-11-03T12:05:05.003Z,46.40
2022-11-03T12:15:55.431Z,46.40
2022-11-03T12:18:35.095Z,46.50
2022-11-03T12:21:10.998Z,46.40
2022-11-03T12:27:41.408Z,46.40
2022-11-03T12:30:19.554Z,46.30
2022-11-03T12:32:47.491Z,46.30
2022-11-03T12:43:26.495Z,46.10
2022-11-03T12:45:53.582Z,46.40
2022-11-03T12:48:25.773Z,46.30
2022-11-03T12:50:52.746Z,46.30
2022-11-03T12:57:07.058Z,46.10
2022-11-03T12:59:34.055Z,46.10
2022-11-03T13:02:01.239Z,46.20
2022-11-03T13:04:31.197Z,46.10
2022-11-03T13:15:50.301Z,46.10
2022-11-03T13:22:07.342Z,46.10
2022-11-03T13:31:28.483Z,46.20
2022-11-03T13:41:40.584Z,46.50
2022-11-03T13:48:28.998Z,46.60
2022-11-03T13:51:03.670Z,46.50
2022-11-03T13:56:21.872Z,46.10
2022-11-03T14:01:48.350Z,45.80
2022-11-03T14:07:15.068Z,45.50
2022-11-03T14:09:50.600Z,45.60
2022-11-03T14:12:34.666Z,45.50
2022-11-03T14:15:06.290Z,45.50
2022-11-03T14:17:33.549Z,45.30
2022-11-03T14:20:04.114Z,45.40
2022-11-03T14:22:32.874Z,45.40
2022-11-03T14:25:01.173Z,45.50
2022-11-03T14:27:28.512Z,45.40
2022-11-03T14:29:55.761Z,45.40
2022-11-03T14:32:22.838Z,45.40
2022-11-03T14:34:49.878Z,45.30
2022-11-03T14:37:17.062Z,45.30
2022-11-03T14:39:44.332Z,45.40
2022-11-03T14:42:16.023Z,45.40
2022-11-03T14:45:16.993Z,45.30
2022-11-03T14:47:43.972Z,45.30
2022-11-03T14:50:13.864Z,45.80
2022-11-03T14:52:40.948Z,45.30
2022-11-03T14:55:08.607Z,45.30
2022-11-03T15:01:28.594Z,45.40
2022-11-03T15:04:47.974Z,45.50
2022-11-03T15:14:57.041Z,46.50
2022-11-03T15:17:26.702Z,46.90
2022-11-03T15:27:39.966Z,47.50
2022-11-03T15:30:08.120Z,47.80
2022-11-03T15:36:16.210Z,48.10
2022-11-03T15:38:43.278Z,48.10
2022-11-03T15:41:16.555Z,48.10
2022-11-03T15:43:45.084Z,48.00
2022-11-03T15:47:02.168Z,48.00
2022-11-03T15:49:29.137Z,47.90
2022-11-03T15:51:56.134Z,47.90
2022-11-03T15:54:23.367Z,48.00
2022-11-03T15:56:50.440Z,48.00
2022-11-03T15:59:18.342Z,48.10
2022-11-03T16:05:26.189Z,48.20
2022-11-03T16:07:53.256Z,48.20
2022-11-03T16:10:20.247Z,48.40
2022-11-03T16:12:47.538Z,48.40
2022-11-03T16:18:54.818Z,48.60
2022-11-03T16:21:21.826Z,48.80
2022-11-03T16:23:48.819Z,49.00
2022-11-03T16:26:16.975Z,49.30
2022-11-03T16:28:43.932Z,49.50
2022-11-03T16:34:52.360Z,50.00
2022-11-03T16:37:19.838Z,50.10
2022-11-03T16:39:46.890Z,50.20
2022-11-03T16:42:13.943Z,50.20
2022-11-03T16:45:26.807Z,50.30
2022-11-03T16:47:54.154Z,50.50
2022-11-03T16:50:21.150Z,50.50
2022-11-03T16:52:49.436Z,50.50
2022-11-03T16:55:17.800Z,50.60
2022-11-03T16:57:45.965Z,50.70
2022-11-03T17:00:16.208Z,50.70
2022-11-03T17:02:43.740Z,50.60
2022-11-03T17:05:11.912Z,50.70
2022-11-03T17:07:39.391Z,51.20
2022-11-03T17:10:07.960Z,51.80
2022-11-03T17:12:35.083Z,52.70
2022-11-03T17:15:02.181Z,53.80
2022-11-03T17:17:29.210Z,54.20
2022-11-03T17:19:56.247Z,54.30
2022-11-03T17:22:23.545Z,54.70
2022-11-03T17:24:50.694Z,54.80
2022-11-03T17:27:25.261Z,54.90
2022-11-03T17:29:59.330Z,55.00
2022-11-03T17:32:37.856Z,55.00
2022-11-03T17:35:14.568Z,55.10
2022-11-03T17:37:41.684Z,55.20
2022-11-03T17:40:16.852Z,56.00
2022-11-03T17:42:44.199Z,55.70
2022-11-03T17:45:20.287Z,55.70
2022-11-03T17:47:47.520Z,55.70
2022-11-03T17:50:17.347Z,55.60
2022-11-03T17:52:46.588Z,55.60
2022-11-03T17:55:29.401Z,55.40
2022-11-03T17:57:59.802Z,55.30
2022-11-03T18:00:27.366Z,55.10
2022-11-03T18:02:56.403Z,55.10
2022-11-03T18:05:31.347Z,54.90
2022-11-03T18:08:02.364Z,54.80
2022-11-03T18:10:35.435Z,54.70
2022-11-03T18:13:17.297Z,54.60
2022-11-03T18:16:06.247Z,54.50
2022-11-03T18:18:41.983Z,54.40
2022-11-03T18:21:15.222Z,54.40
2022-11-03T18:23:42.300Z,54.30
2022-11-03T18:26:20.990Z,54.30
2022-11-03T18:28:50.410Z,54.30
2022-11-03T18:31:34.076Z,54.30
2022-11-03T18:34:05.375Z,54.20
2022-11-03T18:36:34.344Z,54.20
2022-11-03T18:39:02.748Z,54.20
2022-11-03T18:41:40.362Z,54.20
2022-11-03T18:44:20.526Z,54.20
2022-11-03T18:46:49.164Z,54.20
2022-11-03T18:49:16.482Z,54.20
2022-11-03T18:52:02.037Z,54.20
2022-11-03T18:54:31.646Z,54.20
2022-11-03T18:56:59.326Z,54.20
2022-11-03T18:59:29.592Z,54.20
2022-11-03T19:01:56.784Z,54.30
2022-11-03T19:04:24.133Z,54.30
2022-11-03T19:06:52.944Z,54.30
2022-11-03T19:09:24.780Z,54.20
2022-11-03T19:11:54.733Z,54.20
2022-11-03T19:14:31.921Z,54.20
2022-11-03T19:19:53.870Z,54.10
2022-11-03T19:22:23.046Z,54.00
2022-11-03T19:24:50.169Z,54.00
2022-11-03T19:27:22.346Z,53.90
2022-11-03T19:29:49.980Z,53.90
2022-11-03T19:32:23.694Z,53.90
2022-11-03T19:34:58.280Z,53.90
2022-11-03T19:37:27.138Z,53.90
2022-11-03T19:39:58.232Z,53.90
2022-11-03T19:42:28.254Z,53.90
2022-11-03T19:44:59.837Z,53.80
2022-11-03T19:47:32.702Z,53.80
2022-11-03T19:50:03.007Z,53.80
2022-11-03T19:52:32.660Z,53.80
2022-11-03T19:55:02.847Z,53.80
2022-11-03T19:57:29.957Z,53.80
2022-11-03T19:59:59.235Z,53.70
2022-11-03T20:02:28.331Z,53.70
2022-11-03T20:04:55.931Z,53.70
2022-11-03T20:07:28.179Z,53.70
2022-11-03T20:09:58.378Z,53.70
2022-11-03T20:12:25.564Z,53.80
2022-11-03T20:14:52.699Z,53.70
2022-11-03T20:17:22.969Z,53.70
2022-11-03T20:19:50.159Z,53.70
2022-11-03T20:22:29.061Z,53.70
2022-11-03T20:25:00.681Z,53.70
2022-11-03T20:27:27.773Z,53.70
2022-11-03T20:29:55.153Z,53.70
2022-11-03T20:32:22.165Z,53.70
2022-11-03T20:34:49.206Z,53.70
2022-11-03T20:37:19.223Z,53.80
2022-11-03T20:39:47.567Z,53.80
2022-11-03T20:42:26.624Z,53.80
2022-11-03T20:44:53.740Z,53.80
2022-11-03T20:47:21.081Z,53.80
2022-11-03T20:49:48.565Z,53.80
2022-11-03T20:52:16.281Z,53.70
2022-11-03T20:54:43.989Z,53.60
2022-11-03T20:57:13.581Z,53.60
2022-11-03T20:59:41.528Z,53.60
2022-11-03T21:02:13.148Z,53.60
2022-11-03T21:04:41.161Z,53.60
2022-11-03T21:07:11.704Z,53.50
2022-11-03T21:09:38.891Z,53.50
2022-11-03T21:12:08.865Z,53.50
2022-11-03T21:14:35.908Z,53.50
2022-11-03T21:17:22.934Z,53.50
2022-11-03T21:19:59.390Z,53.50
2022-11-03T21:22:52.451Z,53.50
2022-11-03T21:25:22.495Z,53.50
2022-11-03T21:27:49.881Z,53.50
2022-11-03T21:30:17.625Z,53.50
2022-11-03T21:32:44.776Z,53.50
2022-11-03T21:35:17.349Z,53.50
2022-11-03T21:37:44.439Z,53.50
2022-11-03T21:40:11.990Z,53.50
2022-11-03T21:42:59.160Z,53.50
2022-11-03T21:45:26.766Z,54.00
2022-11-03T21:48:14.736Z,53.50
2022-11-03T21:50:43.140Z,53.50
2022-11-03T21:53:10.971Z,53.50
2022-11-03T21:55:38.664Z,53.50
2022-11-03T21:58:05.913Z,53.50
2022-11-03T22:00:33.551Z,53.50
2022-11-03T22:03:01.196Z,53.60
2022-11-03T22:05:28.371Z,53.60
2022-11-03T22:07:55.424Z,53.60
2022-11-03T22:10:22.940Z,53.60
2022-11-03T22:12:50.324Z,53.60
2022-11-03T22:15:37.347Z,53.70
2022-11-03T22:18:06.605Z,53.70
2022-11-03T22:20:55.991Z,53.70
2022-11-03T22:23:42.863Z,53.70
2022-11-03T22:26:35.487Z,53.70
2022-11-03T22:29:22.559Z,53.60
2022-11-03T22:31:49.610Z,53.60
2022-11-03T22:34:36.505Z,54.10
2022-11-03T22:37:03.557Z,53.50
2022-11-03T22:39:50.461Z,53.40
2022-11-03T22:42:37.384Z,53.40
2022-11-03T22:45:24.603Z,53.40
2022-11-03T22:47:57.472Z,53.40
2022-11-03T22:50:24.850Z,53.40
2022-11-03T22:52:51.860Z,53.40
2022-11-03T22:55:18.860Z,53.30
2022-11-03T22:57:45.881Z,53.40
2022-11-03T23:00:14.158Z,53.40
2022-11-03T23:02:41.404Z,53.40
2022-11-03T23:05:08.863Z,53.40
2022-11-03T23:07:40.989Z,53.40
2022-11-03T23:10:08.985Z,53.40
2022-11-03T23:12:36.047Z,53.40
2022-11-03T23:15:23.010Z,53.40
2022-11-03T23:18:09.991Z,53.30
2022-11-03T23:20:58.208Z,53.30
2022-11-03T23:23:45.124Z,53.30
2022-11-03T23:26:12.529Z,53.30
2022-11-03T23:28:39.811Z,53.30
2022-11-03T23:31:07.237Z,53.30
2022-11-03T23:33:34.777Z,53.40
2022-11-03T23:36:08.757Z,53.30
2022-11-03T23:38:37.089Z,53.30
2022-11-03T23:41:06.372Z,53.30
2022-11-03T23:43:33.873Z,53.30
2022-11-03T23:46:21.067Z,53.90
2022-11-03T23:48:48.394Z,53.30
2022-11-03T23:51:17.790Z,53.30
2022-11-03T23:53:45.846Z,53.30
2022-11-03T23:56:34.619Z,53.30
2022-11-03T23:59:01.643Z,53.40
